Terminal Aerodrome Forecast
Issued by NWS Blacksburg, VA

Current Version | Previous Version | Graphics & Text | Print | Product List | Glossary On
Versions: 1 2 3 4 5 6 7 8 9 10 11 12 13 14 15 16 17 18 19 20 21 22 23 24 25 26 27 28 29
000
FTUS41 KRNK 281630 AAB
TAFBLF
TAF AMD
KBLF 281630Z 2817/2912 29008KT P6SM -RA BKN005 OVC009
     FM281800 29006KT 4SM -RA BR SCT003 OVC012
     FM282300 29006KT 2SM -RADZ OVC003=

USA.gov is the U.S. government's official web portal to all federal, state and local government web resources and services.